Time,TemperatureF,DewpointF,PressureIn,WindDirection,WindDirectionDegrees,WindSpeedMPH,WindSpeedGustMPH,Humidity,HourlyPrecipIn,Conditions,Clouds,dailyrainin,SoftwareType,DateUTC
2013-01-25 00:00:00,50.4,50.1,30.29,NNW,347,0.0,0.0,99,0.00,,,0.00,Wunderground v.1.13,2013-01-25 05:00:00,
2013-01-25 00:10:00,50.1,49.8,30.29,NNW,347,0.0,0.0,99,0.00,,,0.00,Wunderground v.1.13,2013-01-25 05:10:00,
2013-01-25 00:20:00,50.2,49.9,30.29,NNW,347,0.0,0.0,99,0.00,,,0.00,Wunderground v.1.13,2013-01-25 05:20:00,
2013-01-25 00:30:00,50.2,49.9,30.30,NNW,347,0.0,0.0,99,0.00,,,0.00,Wunderground v.1.13,2013-01-25 05:30:00,
2013-01-25 00:40:00,50.1,49.8,30.30,NNW,347,0.0,0.0,99,0.00,,,0.00,Wunderground v.1.13,2013-01-25 05:40:00,
2013-01-25 00:50:00,49.5,49.2,30.30,NNW,347,0.0,0.0,99,0.00,,,0.00,Wunderground v.1.13,2013-01-25 05:50:00,
2013-01-25 01:00:00,49.5,49.2,30.30,N/A,-737280,0.0,0.0,99,0.00,,,0.00,Wunderground v.1.13,2013-01-25 06:00:00,
2013-01-25 01:10:00,49.4,49.1,30.30,NNW,347,0.0,0.0,99,0.00,,,0.00,Wunderground v.1.13,2013-01-25 06:10:00,
2013-01-25 01:20:00,49.2,48.9,30.30,NNW,347,0.0,0.0,99,0.00,,,0.00,Wunderground v.1.13,2013-01-25 06:20:00,
2013-01-25 01:30:00,49.2,48.9,30.30,NNW,347,0.0,0.0,99,0.00,,,0.00,Wunderground v.1.13,2013-01-25 06:30:00,
2013-01-25 01:40:00,49.1,48.8,30.30,NNW,347,0.0,0.0,99,0.00,,,0.00,Wunderground v.1.13,2013-01-25 06:40:00,
2013-01-25 01:50:00,49.1,48.8,30.30,NNW,347,0.0,0.0,99,0.00,,,0.00,Wunderground v.1.13,2013-01-25 06:50:00,
2013-01-25 02:00:00,48.8,48.5,30.28,NNW,347,0.0,0.0,99,0.00,,,0.00,Wunderground v.1.13,2013-01-25 07:00:00,
2013-01-25 02:10:00,48.3,48.0,30.28,NNW,347,0.0,0.0,99,0.00,,,0.00,Wunderground v.1.13,2013-01-25 07:10:00,
2013-01-25 02:20:00,48.2,48.2,30.28,NNW,347,0.0,0.0,100,0.00,,,0.00,Wunderground v.1.13,2013-01-25 07:20:00,
2013-01-25 02:30:00,48.5,48.5,30.27,NNW,347,0.0,0.0,100,0.00,,,0.00,Wunderground v.1.13,2013-01-25 07:30:00,
2013-01-25 02:40:00,48.5,48.5,30.27,NNW,347,0.0,0.0,100,0.00,,,0.00,Wunderground v.1.13,2013-01-25 07:40:00,
2013-01-25 02:50:00,48.2,47.9,30.27,NNW,347,0.0,0.0,99,0.00,,,0.00,Wunderground v.1.13,2013-01-25 07:50:00,
2013-01-25 03:00:00,48.3,48.3,30.27,NNW,347,0.0,0.0,100,0.00,,,0.00,Wunderground v.1.13,2013-01-25 08:00:00,
2013-01-25 03:10:00,48.2,48.2,30.27,NNW,347,0.0,0.0,100,0.00,,,0.00,Wunderground v.1.13,2013-01-25 08:10:00,
2013-01-25 03:20:00,47.9,47.9,30.26,NNW,347,0.0,0.0,100,0.00,,,0.00,Wunderground v.1.13,2013-01-25 08:20:00,
2013-01-25 03:30:00,47.6,47.6,30.25,NNW,347,0.0,0.0,100,0.00,,,0.00,Wunderground v.1.13,2013-01-25 08:30:00,
2013-01-25 03:40:00,47.3,47.3,30.25,NNW,347,0.0,0.0,100,0.00,,,0.00,Wunderground v.1.13,2013-01-25 08:40:00,
2013-01-25 03:50:00,47.3,47.3,30.25,NNW,347,0.0,0.0,100,0.00,,,0.00,Wunderground v.1.13,2013-01-25 08:50:00,
2013-01-25 04:00:00,47.3,47.3,30.25,NNW,347,0.0,0.0,100,0.00,,,0.00,Wunderground v.1.13,2013-01-25 09:00:00,
2013-01-25 04:10:00,47.3,47.3,30.25,NNW,347,0.0,0.0,100,0.00,,,0.00,Wunderground v.1.13,2013-01-25 09:10:00,
2013-01-25 04:20:00,47.4,47.4,30.25,NNW,347,0.0,0.0,100,0.00,,,0.00,Wunderground v.1.13,2013-01-25 09:20:00,
2013-01-25 04:30:00,47.3,47.3,30.26,NNW,347,0.0,0.0,100,0.00,,,0.00,Wunderground v.1.13,2013-01-25 09:30:00,
2013-01-25 04:40:00,47.3,47.3,30.26,NNW,347,0.0,0.0,100,0.00,,,0.00,Wunderground v.1.13,2013-01-25 09:40:00,
2013-01-25 04:50:00,47.1,47.1,30.26,NNW,347,0.0,0.0,100,0.00,,,0.00,Wunderground v.1.13,2013-01-25 09:50:00,
2013-01-25 05:00:00,47.0,47.0,30.26,NNW,347,0.0,0.0,100,0.00,,,0.00,Wunderground v.1.13,2013-01-25 10:00:00,
2013-01-25 05:10:00,47.0,47.0,30.26,NNW,347,0.0,0.0,100,0.00,,,0.00,Wunderground v.1.13,2013-01-25 10:10:00,
2013-01-25 05:20:00,46.8,46.8,30.26,NNW,347,0.0,0.0,100,0.00,,,0.00,Wunderground v.1.13,2013-01-25 10:20:00,
2013-01-25 05:30:00,46.7,46.7,30.27,NNW,347,0.0,0.0,100,0.00,,,0.00,Wunderground v.1.13,2013-01-25 10:30:00,
2013-01-25 05:40:00,46.7,46.7,30.27,NNW,347,0.0,0.0,100,0.00,,,0.00,Wunderground v.1.13,2013-01-25 10:40:00,
2013-01-25 05:50:00,46.5,46.5,30.27,NNW,347,0.0,0.0,100,0.00,,,0.00,Wunderground v.1.13,2013-01-25 10:50:00,
2013-01-25 06:00:00,46.4,46.4,30.27,NNW,347,0.0,0.0,100,0.00,,,0.00,Wunderground v.1.13,2013-01-25 11:00:00,
2013-01-25 06:10:00,46.4,46.4,30.27,NNW,347,0.0,0.0,100,0.00,,,0.00,Wunderground v.1.13,2013-01-25 11:10:00,
2013-01-25 06:20:00,46.5,46.5,30.28,NNW,347,0.0,0.0,100,0.00,,,0.00,Wunderground v.1.13,2013-01-25 11:20:00,
2013-01-25 06:30:00,46.8,46.8,30.28,NNW,347,0.0,0.0,100,0.00,,,0.00,Wunderground v.1.13,2013-01-25 11:30:00,
2013-01-25 06:40:00,47.1,47.1,30.28,NNW,347,0.0,0.0,100,0.00,,,0.00,Wunderground v.1.13,2013-01-25 11:40:00,
2013-01-25 06:50:00,47.0,47.0,30.29,NNW,347,0.0,0.0,100,0.00,,,0.00,Wunderground v.1.13,2013-01-25 11:50:00,
2013-01-25 07:00:00,47.0,47.0,30.29,NNW,347,0.0,0.0,100,0.00,,,0.00,Wunderground v.1.13,2013-01-25 12:00:00,
2013-01-25 07:10:00,47.0,47.0,30.29,NNW,347,0.0,0.0,100,0.00,,,0.00,Wunderground v.1.13,2013-01-25 12:10:00,
2013-01-25 07:20:00,47.4,47.4,30.29,NNW,347,0.0,0.0,100,0.00,,,0.00,Wunderground v.1.13,2013-01-25 12:20:00,
2013-01-25 07:30:00,47.9,47.9,30.29,NNW,347,0.0,0.0,100,0.00,,,0.00,Wunderground v.1.13,2013-01-25 12:30:00,
2013-01-25 07:40:00,48.2,48.2,30.29,NNW,347,0.0,0.0,100,0.00,,,0.00,Wunderground v.1.13,2013-01-25 12:40:00,
2013-01-25 07:50:00,48.6,48.6,30.29,NNW,347,0.0,0.0,100,0.00,,,0.00,Wunderground v.1.13,2013-01-25 12:50:00,
2013-01-25 08:00:00,49.2,49.2,30.30,NNW,347,0.0,0.0,100,0.00,,,0.00,Wunderground v.1.13,2013-01-25 13:00:00,
2013-01-25 08:10:00,49.9,49.9,30.30,NNW,347,0.0,0.0,100,0.00,,,0.00,Wunderground v.1.13,2013-01-25 13:10:00,
2013-01-25 08:20:00,51.7,51.7,30.30,NNW,347,0.0,0.0,100,0.00,,,0.00,Wunderground v.1.13,2013-01-25 13:20:00,
2013-01-25 08:30:00,54.4,54.4,30.30,NNW,347,0.0,0.0,100,0.00,,,0.00,Wunderground v.1.13,2013-01-25 13:30:00,
2013-01-25 08:40:00,55.6,55.6,30.30,NNW,347,0.0,0.0,100,0.00,,,0.00,Wunderground v.1.13,2013-01-25 13:40:00,
2013-01-25 08:50:00,56.5,56.5,30.30,NNW,347,0.0,0.0,100,0.00,,,0.00,Wunderground v.1.13,2013-01-25 13:50:00,
2013-01-25 09:00:00,57.5,57.5,30.30,NNW,347,0.0,0.0,100,0.00,,,0.00,Wunderground v.1.13,2013-01-25 14:00:00,
2013-01-25 09:10:00,58.1,58.1,30.30,NNW,347,0.0,0.0,100,0.00,,,0.00,Wunderground v.1.13,2013-01-25 14:10:00,
2013-01-25 09:20:00,58.9,58.9,30.31,NNW,347,0.0,0.0,100,0.00,,,0.00,Wunderground v.1.13,2013-01-25 14:20:00,
2013-01-25 09:30:00,59.5,59.5,30.31,NNW,347,0.0,0.0,100,0.00,,,0.00,Wunderground v.1.13,2013-01-25 14:30:00,
2013-01-25 09:40:00,59.9,59.9,30.31,NNW,347,0.0,0.0,100,0.00,,,0.00,Wunderground v.1.13,2013-01-25 14:40:00,
2013-01-25 09:50:00,61.5,61.5,30.31,WNW,295,0.0,0.0,100,0.00,,,0.00,Wunderground v.1.13,2013-01-25 14:50:00,
2013-01-25 10:00:00,62.7,61.5,30.31,WNW,295,0.0,0.0,96,0.00,,,0.00,Wunderground v.1.13,2013-01-25 15:00:00,
2013-01-25 10:10:00,64.2,63.0,30.31,WNW,295,0.0,0.0,96,0.00,,,0.00,Wunderground v.1.13,2013-01-25 15:10:00,
2013-01-25 10:20:00,65.6,57.8,30.31,SSW,209,0.0,0.0,76,0.00,,,0.00,Wunderground v.1.13,2013-01-25 15:20:00,
2013-01-25 10:30:00,67.1,59.3,30.31,SSW,203,0.0,0.0,76,0.00,,,0.00,Wunderground v.1.13,2013-01-25 15:30:00,
2013-01-25 10:40:00,68.3,56.5,30.31,SSW,199,0.0,0.0,66,0.00,,,0.00,Wunderground v.1.13,2013-01-25 15:40:00,
2013-01-25 10:50:00,69.3,56.2,30.31,SSW,192,0.0,0.0,63,0.00,,,0.00,Wunderground v.1.13,2013-01-25 15:50:00,
2013-01-25 11:00:00,69.4,55.4,30.31,South,184,0.0,0.0,61,0.00,,,0.00,Wunderground v.1.13,2013-01-25 16:00:00,
2013-01-25 11:10:00,69.6,53.7,30.31,East,99,0.0,0.0,57,0.00,,,0.00,Wunderground v.1.13,2013-01-25 16:10:00,
2013-01-25 11:20:00,70.3,54.3,30.30,ESE,113,0.0,0.0,57,0.00,,,0.00,Wunderground v.1.13,2013-01-25 16:20:00,
2013-01-25 11:30:00,71.5,55.5,30.30,SE,127,0.0,2.0,57,0.00,,,0.00,Wunderground v.1.13,2013-01-25 16:30:00,
2013-01-25 11:40:00,71.5,55.5,30.30,SE,127,1.0,1.0,57,0.00,,,0.00,Wunderground v.1.13,2013-01-25 16:40:00,
2013-01-25 11:50:00,71.3,52.2,30.29,East,95,1.0,1.0,51,0.00,,,0.00,Wunderground v.1.13,2013-01-25 16:50:00,
2013-01-25 12:00:00,70.8,50.1,30.28,East,96,0.0,0.0,48,0.00,,,0.00,Wunderground v.1.13,2013-01-25 17:00:00,
2013-01-25 12:10:00,71.8,49.3,30.28,SSE,162,0.0,0.0,45,0.00,,,0.00,Wunderground v.1.13,2013-01-25 17:10:00,
2013-01-25 12:20:00,72.8,49.6,30.27,SE,144,0.0,0.0,44,0.00,,,0.00,Wunderground v.1.13,2013-01-25 17:20:00,
2013-01-25 12:30:00,73.0,49.8,30.27,NE,34,0.0,0.0,44,0.00,,,0.00,Wunderground v.1.13,2013-01-25 17:30:00,
2013-01-25 12:40:00,73.0,48.5,30.27,East,93,0.0,0.0,42,0.00,,,0.00,Wunderground v.1.13,2013-01-25 17:40:00,
2013-01-25 12:50:00,73.2,48.1,30.25,ESE,104,0.0,0.0,41,0.00,,,0.00,Wunderground v.1.13,2013-01-25 17:50:00,
2013-01-25 13:00:00,73.5,47.7,30.25,ESE,114,0.0,0.0,40,0.00,,,0.00,Wunderground v.1.13,2013-01-25 18:00:00,
2013-01-25 13:10:00,73.5,47.7,30.25,ESE,109,0.0,0.0,40,0.00,,,0.00,Wunderground v.1.13,2013-01-25 18:10:00,
2013-01-25 13:20:00,-999.9,-99.9,30.25,North,32767,-999.0,0.0,255,-99.99,,,0.00,Wunderground v.1.13,2013-01-25 18:20:00,
2013-01-25 13:30:00,74.4,-99.9,30.24,SE,128,0.0,0.0,255,0.00,,,0.00,Wunderground v.1.13,2013-01-25 18:30:00,
2013-01-25 13:40:00,72.8,54.7,30.24,SW,222,0.0,2.0,53,0.00,,,0.00,Wunderground v.1.13,2013-01-25 18:40:00,
2013-01-25 13:50:00,72.8,54.7,30.23,North,32767,-999.0,0.0,53,0.00,,,0.00,Wunderground v.1.13,2013-01-25 18:50:00,
2013-01-25 14:00:00,-999.9,-99.9,30.23,North,32767,-999.0,0.0,255,-99.99,,,0.00,Wunderground v.1.13,2013-01-25 19:00:00,
2013-01-25 14:10:00,-999.9,-99.9,30.23,North,32767,-999.0,0.0,255,-99.99,,,0.00,Wunderground v.1.13,2013-01-25 19:10:00,
2013-01-25 14:20:00,-999.9,-99.9,30.22,North,32767,-999.0,0.0,255,-99.99,,,0.00,Wunderground v.1.13,2013-01-25 19:20:00,
2013-01-25 14:30:00,-999.9,-99.9,30.22,North,32767,-999.0,0.0,255,-99.99,,,0.00,Wunderground v.1.13,2013-01-25 19:30:00,
2013-01-25 14:40:00,-999.9,-99.9,30.22,WSW,254,1.0,1.0,255,0.00,,,0.00,Wunderground v.1.13,2013-01-25 19:40:00,
2013-01-25 14:50:00,70.3,59.2,30.21,WSW,257,0.0,0.0,68,0.00,,,0.00,Wunderground v.1.13,2013-01-25 19:50:00,
2013-01-25 15:00:00,70.3,59.2,30.21,WSW,257,0.0,0.0,68,0.00,,,0.00,Wunderground v.1.13,2013-01-25 20:00:00,
2013-01-25 15:10:00,70.3,59.2,30.21,West,260,2.0,2.0,68,0.00,,,0.00,Wunderground v.1.13,2013-01-25 20:10:00,
2013-01-25 15:20:00,-999.9,-99.9,30.20,North,32767,-999.0,0.0,255,-99.99,,,0.00,Wunderground v.1.13,2013-01-25 20:20:00,
2013-01-25 15:30:00,-999.9,-99.9,30.20,North,32767,-999.0,0.0,255,-99.99,,,0.00,Wunderground v.1.13,2013-01-25 20:30:00,
2013-01-25 15:40:00,-999.9,-99.9,30.20,North,32767,-999.0,0.0,255,-99.99,,,0.00,Wunderground v.1.13,2013-01-25 20:40:00,
2013-01-25 15:50:00,-999.9,-99.9,30.20,North,32767,-999.0,0.0,255,-99.99,,,0.00,Wunderground v.1.13,2013-01-25 20:50:00,
2013-01-25 16:00:00,-999.9,-99.9,30.20,North,32767,-999.0,0.0,255,-99.99,,,0.00,Wunderground v.1.13,2013-01-25 21:00:00,
2013-01-25 16:10:00,-999.9,-99.9,30.20,North,32767,-999.0,0.0,255,-99.99,,,0.00,Wunderground v.1.13,2013-01-25 21:10:00,
2013-01-25 16:20:00,-999.9,-99.9,30.19,North,32767,-999.0,0.0,255,-99.99,,,0.00,Wunderground v.1.13,2013-01-25 21:20:00,
2013-01-25 16:30:00,-999.9,-99.9,30.19,North,32767,-999.0,0.0,255,-99.99,,,0.00,Wunderground v.1.13,2013-01-25 21:30:00,
2013-01-25 16:40:00,-999.9,-99.9,30.19,North,32767,-999.0,0.0,255,-99.99,,,0.00,Wunderground v.1.13,2013-01-25 21:40:00,
2013-01-25 16:50:00,-999.9,-99.9,30.20,North,32767,-999.0,0.0,255,-99.99,,,0.00,Wunderground v.1.13,2013-01-25 21:50:00,
2013-01-25 17:00:00,68.8,-99.9,30.20,WSW,257,0.0,0.0,255,-99.99,,,0.00,Wunderground v.1.13,2013-01-25 22:00:00,
2013-01-25 17:10:00,68.8,-99.9,30.20,North,32767,-999.0,0.0,255,-99.99,,,0.00,Wunderground v.1.13,2013-01-25 22:10:00,
2013-01-25 17:20:00,-999.9,-99.9,30.20,North,32767,-999.0,0.0,255,-99.99,,,0.00,Wunderground v.1.13,2013-01-25 22:20:00,
2013-01-25 17:30:00,-999.9,-99.9,30.21,West,263,0.0,0.0,255,0.00,,,0.00,Wunderground v.1.13,2013-01-25 22:30:00,
2013-01-25 17:40:00,-999.9,-99.9,30.21,North,32767,-999.0,0.0,255,-99.99,,,0.00,Wunderground v.1.13,2013-01-25 22:40:00,
2013-01-25 17:50:00,-999.9,-99.9,30.21,North,32767,-999.0,0.0,255,-99.99,,,0.00,Wunderground v.1.13,2013-01-25 22:50:00,
2013-01-25 18:00:00,-999.9,-99.9,30.21,North,32767,-999.0,0.0,255,-99.99,,,0.00,Wunderground v.1.13,2013-01-25 23:00:00,
2013-01-25 18:10:00,-999.9,-99.9,30.21,North,32767,-999.0,0.0,255,-99.99,,,0.00,Wunderground v.1.13,2013-01-25 23:10:00,
2013-01-25 18:20:00,-999.9,-99.9,30.21,North,32767,-999.0,0.0,255,-99.99,,,0.00,Wunderground v.1.13,2013-01-25 23:20:00,
2013-01-25 18:30:00,-999.9,-99.9,30.21,North,32767,-999.0,0.0,255,-99.99,,,0.00,Wunderground v.1.13,2013-01-25 23:30:00,
2013-01-25 18:40:00,-999.9,-99.9,30.21,North,32767,-999.0,0.0,255,-99.99,,,0.00,Wunderground v.1.13,2013-01-25 23:40:00,
2013-01-25 18:50:00,-999.9,-99.9,30.21,North,32767,-999.0,0.0,255,-99.99,,,0.00,Wunderground v.1.13,2013-01-25 23:50:00,
2013-01-25 19:00:00,-999.9,-99.9,30.22,North,32767,-999.0,0.0,255,-99.99,,,0.00,Wunderground v.1.13,2013-01-26 00:00:00,
2013-01-25 19:10:00,-999.9,-99.9,30.22,North,32767,-999.0,0.0,255,-99.99,,,0.00,Wunderground v.1.13,2013-01-26 00:10:00,
2013-01-25 19:20:00,-999.9,-99.9,30.22,North,32767,-999.0,0.0,255,-99.99,,,0.00,Wunderground v.1.13,2013-01-26 00:20:00,
2013-01-25 19:30:00,-999.9,-99.9,30.22,North,32767,-999.0,0.0,255,-99.99,,,0.00,Wunderground v.1.13,2013-01-26 00:30:00,
2013-01-25 19:40:00,-999.9,-99.9,30.22,North,32767,-999.0,0.0,255,-99.99,,,0.00,Wunderground v.1.13,2013-01-26 00:40:00,
2013-01-25 19:50:00,-999.9,-99.9,30.23,North,32767,-999.0,0.0,255,-99.99,,,0.00,Wunderground v.1.13,2013-01-26 00:50:00,
2013-01-25 20:00:00,57.5,55.2,30.22,West,265,0.0,0.0,92,0.00,,,0.00,Wunderground v.1.13,2013-01-26 01:00:00,
2013-01-25 20:10:00,57.5,55.2,30.22,West,265,0.0,0.0,92,0.00,,,0.00,Wunderground v.1.13,2013-01-26 01:10:00,
2013-01-25 20:20:00,56.9,54.6,30.22,West,265,0.0,0.0,92,0.00,,,0.00,Wunderground v.1.13,2013-01-26 01:20:00,
2013-01-25 20:30:00,56.7,54.4,30.22,West,265,0.0,0.0,92,0.00,,,0.00,Wunderground v.1.13,2013-01-26 01:30:00,
2013-01-25 20:40:00,55.9,53.6,30.22,West,265,0.0,0.0,92,0.00,,,0.00,Wunderground v.1.13,2013-01-26 01:40:00,
2013-01-25 20:50:00,55.3,53.0,30.22,West,265,0.0,0.0,92,0.00,,,0.00,Wunderground v.1.13,2013-01-26 01:50:00,
2013-01-25 21:00:00,55.0,52.7,30.22,West,265,0.0,0.0,92,0.00,,,0.00,Wunderground v.1.13,2013-01-26 02:00:00,
2013-01-25 21:10:00,54.8,52.5,30.22,West,265,0.0,0.0,92,0.00,,,0.00,Wunderground v.1.13,2013-01-26 02:10:00,
2013-01-25 21:20:00,54.5,52.2,30.22,West,265,0.0,0.0,92,0.00,,,0.00,Wunderground v.1.13,2013-01-26 02:20:00,
2013-01-25 21:30:00,54.4,53.3,30.22,West,265,0.0,0.0,96,0.00,,,0.00,Wunderground v.1.13,2013-01-26 02:30:00,
2013-01-25 21:40:00,53.9,52.8,30.22,West,265,0.0,0.0,96,0.00,,,0.00,Wunderground v.1.13,2013-01-26 02:40:00,
2013-01-25 21:50:00,53.5,52.4,30.22,West,265,0.0,0.0,96,0.00,,,0.00,Wunderground v.1.13,2013-01-26 02:50:00,
2013-01-25 22:00:00,53.3,52.5,30.22,West,265,0.0,0.0,97,0.00,,,0.00,Wunderground v.1.13,2013-01-26 03:00:00,
2013-01-25 22:10:00,52.9,52.1,30.22,West,265,0.0,0.0,97,0.00,,,0.00,Wunderground v.1.13,2013-01-26 03:10:00,
2013-01-25 22:20:00,52.8,52.0,30.23,West,265,0.0,0.0,97,0.00,,,0.00,Wunderground v.1.13,2013-01-26 03:20:00,
2013-01-25 22:30:00,52.6,51.8,30.23,West,265,0.0,0.0,97,0.00,,,0.00,Wunderground v.1.13,2013-01-26 03:30:00,
2013-01-25 22:40:00,52.6,51.8,30.23,West,265,0.0,0.0,97,0.00,,,0.00,Wunderground v.1.13,2013-01-26 03:40:00,
2013-01-25 22:50:00,52.3,51.5,30.22,West,265,0.0,0.0,97,0.00,,,0.00,Wunderground v.1.13,2013-01-26 03:50:00,
2013-01-25 23:00:00,52.3,51.5,30.22,West,265,0.0,0.0,97,0.00,,,0.00,Wunderground v.1.13,2013-01-26 04:00:00,
2013-01-25 23:10:00,-999.9,-99.9,30.22,North,32767,-999.0,0.0,255,-99.99,,,0.00,Wunderground v.1.13,2013-01-26 04:10:00,
2013-01-25 23:20:00,-999.9,-99.9,30.22,North,32767,-999.0,0.0,255,-99.99,,,0.00,Wunderground v.1.13,2013-01-26 04:20:00,
2013-01-25 23:30:00,-999.9,-99.9,30.23,North,32767,-999.0,0.0,255,-99.99,,,0.00,Wunderground v.1.13,2013-01-26 04:30:00,
2013-01-25 23:40:00,-999.9,-99.9,30.23,North,32767,-999.0,0.0,255,-99.99,,,0.00,Wunderground v.1.13,2013-01-26 04:40:00,
2013-01-25 23:50:00,-999.9,-99.9,30.23,North,32767,-999.0,0.0,255,-99.99,,,0.00,Wunderground v.1.13,2013-01-26 04:50:00,